Time,TemperatureF,DewpointF,PressureIn,WindDirection,WindDirectionDegrees,WindSpeedMPH,WindSpeedGustMPH,Humidity,HourlyPrecipIn,Conditions,Clouds,dailyrainin,SolarRadiationWatts/m^2,SoftwareType,DateUTC
2013-09-21 00:04:00,54.2,51.0,29.84,NNW,332,0.0,0.0,89,0.01,-DZ,,0.00,0.0,WeatherDisplay:10.37,2013-09-21 05:04:00,
2013-09-21 00:09:00,54.2,51.0,29.84,WNW,285,0.0,0.0,89,0.01,-DZ,,0.00,0.0,WeatherDisplay:10.37,2013-09-21 05:09:00,
2013-09-21 00:14:00,54.5,51.3,29.84,WNW,283,0.0,0.0,89,0.01,-DZ,,0.00,0.0,WeatherDisplay:10.37,2013-09-21 05:14:00,
2013-09-21 00:19:00,54.5,51.3,29.84,NNW,331,1.4,5.5,89,0.01,-DZ,,0.00,0.0,WeatherDisplay:10.37,2013-09-21 05:19:00,
2013-09-21 00:24:00,54.8,51.3,29.84,NW,311,1.3,5.8,88,0.01,OVC,,0.00,0.0,WeatherDisplay:10.37,2013-09-21 05:24:00,
2013-09-21 00:29:00,55.0,50.9,29.84,NW,309,2.5,6.6,86,0.01,OVC,,0.00,0.0,WeatherDisplay:10.37,2013-09-21 05:29:00,
2013-09-21 00:34:00,55.3,51.2,29.84,NW,322,1.2,5.8,86,0.01,OVC,,0.00,0.0,WeatherDisplay:10.37,2013-09-21 05:34:00,
2013-09-21 00:39:00,55.4,51.0,29.84,NW,314,0.0,0.0,85,0.00,OVC,,0.00,0.0,WeatherDisplay:10.37,2013-09-21 05:39:00,
2013-09-21 00:44:00,55.4,51.0,29.84,WNW,285,0.0,3.5,85,0.00,-RA,,0.00,0.0,WeatherDisplay:10.37,2013-09-21 05:44:00,
2013-09-21 00:49:00,55.4,51.0,29.84,WNW,300,0.0,0.0,85,0.00,-RA,,0.00,0.0,WeatherDisplay:10.37,2013-09-21 05:49:00,
2013-09-21 00:54:00,55.4,51.3,29.84,WNW,300,0.0,0.0,86,0.00,-RA,,0.00,0.0,WeatherDisplay:10.37,2013-09-21 05:54:00,
2013-09-21 00:59:00,55.4,51.0,29.84,WNW,300,0.0,0.0,85,0.00,-RA,,0.00,0.0,WeatherDisplay:10.37,2013-09-21 05:59:00,
2013-09-21 01:04:00,55.4,51.0,29.85,WNW,297,0.0,1.2,85,0.00,OVC,,0.00,0.0,WeatherDisplay:10.37,2013-09-21 06:04:00,
2013-09-21 01:09:00,55.3,51.2,29.85,WNW,297,0.0,0.0,86,0.00,OVC,,0.00,0.0,WeatherDisplay:10.37,2013-09-21 06:09:00,
2013-09-21 01:14:00,55.3,51.2,29.85,WNW,297,0.0,0.0,86,0.00,OVC,,0.00,0.0,WeatherDisplay:10.37,2013-09-21 06:14:00,
2013-09-21 01:19:00,55.4,51.3,29.85,WNW,297,0.0,1.2,86,0.00,OVC,,0.00,0.0,WeatherDisplay:10.37,2013-09-21 06:19:00,
2013-09-21 01:24:00,55.3,51.2,29.85,WNW,297,0.0,0.0,86,0.00,OVC,,0.00,0.0,WeatherDisplay:10.37,2013-09-21 06:24:00,
2013-09-21 01:29:00,55.3,51.2,29.85,WNW,297,0.0,0.0,86,0.00,OVC,,0.00,0.0,WeatherDisplay:10.37,2013-09-21 06:29:00,
2013-09-21 01:34:00,55.1,51.0,29.85,WNW,297,0.0,0.0,86,0.00,OVC,,0.00,0.0,WeatherDisplay:10.37,2013-09-21 06:34:00,
2013-09-21 01:39:00,55.0,50.9,29.85,West,281,1.3,4.6,86,0.00,OVC,,0.00,0.0,WeatherDisplay:10.37,2013-09-21 06:39:00,
2013-09-21 01:44:00,55.0,50.9,29.85,West,270,1.9,9.2,86,0.00,OVC,,0.00,0.0,WeatherDisplay:10.37,2013-09-21 06:44:00,
2013-09-21 01:49:00,55.0,50.9,29.85,WNW,301,0.0,1.2,86,0.00,OVC,,0.00,0.0,WeatherDisplay:10.37,2013-09-21 06:49:00,
2013-09-21 01:54:00,54.8,50.7,29.85,WNW,300,0.6,3.3,86,0.00,OVC,,0.00,0.0,WeatherDisplay:10.37,2013-09-21 06:54:00,
2013-09-21 01:59:00,54.8,50.7,29.85,NW,307,0.0,2.3,86,0.00,OVC,,0.00,0.0,WeatherDisplay:10.37,2013-09-21 06:59:00,
2013-09-21 02:04:00,54.8,50.7,29.85,WNW,286,0.0,0.0,86,0.00,OVC,,0.00,0.0,WeatherDisplay:10.37,2013-09-21 07:04:00,
2013-09-21 02:09:00,54.5,50.4,29.85,WNW,286,0.0,1.1,86,0.00,OVC,,0.00,0.0,WeatherDisplay:10.37,2013-09-21 07:09:00,
2013-09-21 02:14:00,54.4,50.3,29.85,WNW,289,0.8,3.5,86,0.00,OVC,,0.00,0.0,WeatherDisplay:10.37,2013-09-21 07:14:00,
2013-09-21 02:19:00,54.1,50.3,29.85,WNW,283,0.1,4.6,87,0.00,OVC,,0.00,0.0,WeatherDisplay:10.37,2013-09-21 07:19:00,
2013-09-21 02:24:00,53.9,50.4,29.85,WNW,287,0.1,1.1,88,0.00,OVC,,0.00,0.0,WeatherDisplay:10.37,2013-09-21 07:24:00,
2013-09-21 02:29:00,53.8,50.3,29.85,SW,227,0.4,3.3,88,0.00,OVC,,0.00,0.0,WeatherDisplay:10.37,2013-09-21 07:29:00,
2013-09-21 02:34:00,53.6,50.1,29.85,WNW,286,0.0,1.2,88,0.00,OVC,,0.00,0.0,WeatherDisplay:10.37,2013-09-21 07:34:00,
2013-09-21 02:39:00,53.6,50.4,29.85,WNW,286,0.0,0.0,89,0.00,OVC,,0.00,0.0,WeatherDisplay:10.37,2013-09-21 07:39:00,
2013-09-21 02:44:00,53.6,50.4,29.85,WNW,290,0.0,1.2,89,0.00,BKN,,0.00,0.0,WeatherDisplay:10.37,2013-09-21 07:44:00,
2013-09-21 02:49:00,53.5,50.3,29.85,WNW,292,0.0,1.2,89,0.00,BKN,,0.00,0.0,WeatherDisplay:10.37,2013-09-21 07:49:00,
2013-09-21 02:54:00,53.5,50.3,29.85,NW,315,0.3,2.3,89,0.00,BKN,,0.00,0.0,WeatherDisplay:10.37,2013-09-21 07:54:00,
2013-09-21 02:59:00,53.3,50.1,29.85,NW,314,0.0,0.0,89,0.00,BKN,,0.00,0.0,WeatherDisplay:10.37,2013-09-21 07:59:00,
2013-09-21 03:04:00,53.2,50.0,29.85,WNW,290,0.1,1.2,89,0.00,BKN,,0.00,0.0,WeatherDisplay:10.37,2013-09-21 08:04:00,
2013-09-21 03:09:00,53.2,50.0,29.85,West,275,0.0,0.0,89,0.00,BKN,,0.00,0.0,WeatherDisplay:10.37,2013-09-21 08:09:00,
2013-09-21 03:14:00,53.1,50.2,29.85,West,280,0.0,0.0,90,0.00,BKN,,0.00,0.0,WeatherDisplay:10.37,2013-09-21 08:14:00,
2013-09-21 03:19:00,52.9,50.0,29.85,West,280,0.0,0.0,90,0.00,BKN,,0.00,0.0,WeatherDisplay:10.37,2013-09-21 08:19:00,
2013-09-21 03:24:00,52.8,49.9,29.85,West,280,0.0,0.0,90,0.00,BKN,,0.00,0.0,WeatherDisplay:10.37,2013-09-21 08:24:00,
2013-09-21 03:29:00,52.6,49.8,29.85,NW,325,0.0,0.0,90,0.00,BKN,,0.00,0.0,WeatherDisplay:10.37,2013-09-21 08:29:00,
2013-09-21 03:34:00,52.6,49.8,29.85,NW,313,0.0,0.0,90,0.00,BKN,,0.00,0.0,WeatherDisplay:10.37,2013-09-21 08:34:00,
2013-09-21 03:39:00,52.5,49.9,29.85,WNW,294,0.0,0.0,91,0.00,BKN,,0.00,0.0,WeatherDisplay:10.37,2013-09-21 08:39:00,
2013-09-21 03:44:00,52.3,49.8,29.85,NW,325,2.4,8.8,91,0.00,SCT,,0.00,0.0,WeatherDisplay:10.37,2013-09-21 08:44:00,
2013-09-21 03:49:00,52.2,49.7,29.85,NW,326,0.0,0.0,91,0.00,SCT,,0.00,0.0,WeatherDisplay:10.37,2013-09-21 08:49:00,
2013-09-21 03:54:00,52.0,49.5,29.85,NW,306,0.0,1.1,91,0.00,SCT,,0.00,0.0,WeatherDisplay:10.37,2013-09-21 08:54:00,
2013-09-21 03:59:00,52.0,49.7,29.85,NW,306,0.0,0.0,92,0.00,SCT,,0.00,0.0,WeatherDisplay:10.37,2013-09-21 08:59:00,
2013-09-21 04:04:00,51.7,49.5,29.85,NW,306,0.0,0.0,92,0.00,CLR,,0.00,0.0,WeatherDisplay:10.37,2013-09-21 09:04:00,
2013-09-21 04:09:00,51.7,49.5,29.85,NW,306,0.0,0.0,92,0.00,CLR,,0.00,0.0,WeatherDisplay:10.37,2013-09-21 09:09:00,
2013-09-21 04:14:00,51.6,49.4,29.85,WNW,300,0.0,0.0,92,0.00,CLR,,0.00,0.0,WeatherDisplay:10.37,2013-09-21 09:14:00,
2013-09-21 04:19:00,51.6,49.4,29.86,SW,214,0.9,4.4,92,0.00,CLR,,0.00,0.0,WeatherDisplay:10.37,2013-09-21 09:19:00,
2013-09-21 04:24:00,51.4,49.2,29.86,West,272,0.0,0.0,92,0.00,CLR,,0.00,0.0,WeatherDisplay:10.37,2013-09-21 09:24:00,
2013-09-21 04:29:00,51.3,49.1,29.86,West,280,0.0,0.0,92,0.00,CLR,,0.00,0.0,WeatherDisplay:10.37,2013-09-21 09:29:00,
2013-09-21 04:34:00,51.3,49.3,29.87,NW,321,0.0,1.2,93,0.00,CLR,,0.00,0.0,WeatherDisplay:10.37,2013-09-21 09:34:00,
2013-09-21 04:39:00,51.1,49.1,29.87,WNW,299,0.0,1.1,93,0.00,CLR,,0.00,0.0,WeatherDisplay:10.37,2013-09-21 09:39:00,
2013-09-21 04:44:00,51.0,49.0,29.87,WNW,298,0.0,0.0,93,0.00,CLR,,0.00,0.0,WeatherDisplay:10.37,2013-09-21 09:44:00,
2013-09-21 04:49:00,50.8,48.8,29.87,WNW,298,0.0,1.2,93,0.00,CLR,,0.00,0.0,WeatherDisplay:10.37,2013-09-21 09:49:00,
2013-09-21 04:54:00,50.8,48.8,29.87,WNW,298,0.0,0.0,93,0.00,CLR,,0.00,0.0,WeatherDisplay:10.37,2013-09-21 09:54:00,
2013-09-21 04:59:00,50.8,48.8,29.87,NNW,335,0.3,3.3,93,0.00,CLR,,0.00,0.0,WeatherDisplay:10.37,2013-09-21 09:59:00,
2013-09-21 05:04:00,50.7,48.7,29.87,WNW,303,0.0,0.0,93,0.00,CLR,,0.00,0.0,WeatherDisplay:10.37,2013-09-21 10:04:00,
2013-09-21 05:09:00,50.7,48.7,29.87,NW,306,0.0,1.1,93,0.00,CLR,,0.00,0.0,WeatherDisplay:10.37,2013-09-21 10:09:00,
2013-09-21 05:14:00,50.7,48.7,29.87,West,271,0.0,2.3,93,0.00,CLR,,0.00,0.0,WeatherDisplay:10.37,2013-09-21 10:14:00,
2013-09-21 05:19:00,50.5,48.6,29.87,NW,315,0.0,1.2,93,0.00,CLR,,0.00,0.0,WeatherDisplay:10.37,2013-09-21 10:19:00,
2013-09-21 05:24:00,50.5,48.6,29.87,NW,316,0.1,1.2,93,0.00,CLR,,0.00,0.0,WeatherDisplay:10.37,2013-09-21 10:24:00,
2013-09-21 05:29:00,50.4,48.5,29.87,West,268,1.4,5.5,93,0.00,CLR,,0.00,0.0,WeatherDisplay:10.37,2013-09-21 10:29:00,
2013-09-21 05:34:00,50.4,48.5,29.87,NW,309,0.0,0.0,93,0.00,CLR,,0.00,0.0,WeatherDisplay:10.37,2013-09-21 10:34:00,
2013-09-21 05:39:00,50.4,48.5,29.87,West,265,0.0,0.0,93,0.00,CLR,,0.00,0.0,WeatherDisplay:10.37,2013-09-21 10:39:00,
2013-09-21 05:44:00,50.2,48.3,29.87,NNW,327,0.0,2.3,93,0.00,CLR,,0.00,0.0,WeatherDisplay:10.37,2013-09-21 10:44:00,
2013-09-21 05:49:00,50.1,48.2,29.88,NW,309,0.0,1.2,93,0.00,CLR,,0.00,0.0,WeatherDisplay:10.37,2013-09-21 10:49:00,
2013-09-21 05:54:00,50.1,48.2,29.88,WNW,290,0.0,1.2,93,0.00,CLR,,0.00,0.0,WeatherDisplay:10.37,2013-09-21 10:54:00,
2013-09-21 05:59:00,50.1,48.2,29.88,WNW,286,0.3,2.2,93,0.00,CLR,,0.00,0.0,WeatherDisplay:10.37,2013-09-21 10:59:00,
2013-09-21 06:04:00,49.9,48.0,29.87,NNW,333,0.2,3.3,93,0.00,CLR,,0.00,0.0,WeatherDisplay:10.37,2013-09-21 11:04:00,
2013-09-21 06:09:00,49.8,47.9,29.87,WNW,302,0.0,3.5,93,0.00,CLR,,0.00,0.0,WeatherDisplay:10.37,2013-09-21 11:09:00,
2013-09-21 06:14:00,49.9,48.2,29.89,North,360,0.5,3.5,94,0.00,CLR,,0.00,0.0,WeatherDisplay:10.37,2013-09-21 11:14:00,
2013-09-21 06:20:00,49.6,47.7,29.89,North,360,0.0,0.0,93,0.00,CLR,,0.00,0.0,WeatherDisplay:10.37,2013-09-21 11:20:00,
2013-09-21 06:25:00,49.5,47.6,29.89,NW,317,0.0,0.0,93,0.00,CLR,,0.00,0.0,WeatherDisplay:10.37,2013-09-21 11:25:00,
2013-09-21 06:30:00,49.5,47.8,29.89,WNW,289,1.3,4.4,94,0.00,CLR,,0.00,0.0,WeatherDisplay:10.37,2013-09-21 11:30:00,
2013-09-21 06:35:00,49.5,47.8,29.89,NW,306,0.1,5.8,94,0.00,CLR,,0.00,0.0,WeatherDisplay:10.37,2013-09-21 11:35:00,
2013-09-21 06:40:00,49.5,47.8,29.89,WNW,296,0.3,3.5,94,0.00,CLR,,0.00,0.0,WeatherDisplay:10.37,2013-09-21 11:40:00,
2013-09-21 06:45:00,49.5,47.8,29.89,WNW,300,0.0,1.1,94,0.00,CLR,,0.00,0.0,WeatherDisplay:10.37,2013-09-21 11:45:00,
2013-09-21 06:50:00,49.5,47.8,29.89,West,259,0.0,0.0,94,0.00,CLR,,0.00,0.0,WeatherDisplay:10.37,2013-09-21 11:50:00,
2013-09-21 06:55:00,49.5,47.8,29.89,NNW,328,0.0,0.0,94,0.00,CLR,,0.00,5.0,WeatherDisplay:10.37,2013-09-21 11:55:00,
2013-09-21 07:00:00,49.5,47.8,29.90,NW,311,0.3,2.2,94,0.00,CLR,,0.00,9.0,WeatherDisplay:10.37,2013-09-21 12:00:00,
2013-09-21 07:05:00,49.4,47.7,29.90,West,269,0.4,4.6,94,0.00,SCT,,0.00,12.0,WeatherDisplay:10.37,2013-09-21 12:05:00,
2013-09-21 07:10:00,49.4,47.7,29.90,West,275,0.0,0.0,94,0.00,SCT,,0.00,14.0,WeatherDisplay:10.37,2013-09-21 12:10:00,
2013-09-21 07:15:00,49.5,47.8,29.90,WNW,290,0.2,4.4,94,0.00,SCT,,0.00,25.0,WeatherDisplay:10.37,2013-09-21 12:15:00,
2013-09-21 07:20:00,49.5,47.8,29.90,West,272,0.0,0.0,94,0.00,SCT,,0.00,54.0,WeatherDisplay:10.37,2013-09-21 12:20:00,
2013-09-21 07:25:00,49.6,47.9,29.90,WNW,293,0.0,3.5,94,0.00,SCT,,0.00,44.0,WeatherDisplay:10.37,2013-09-21 12:25:00,
2013-09-21 07:30:00,49.6,47.7,29.90,WNW,296,0.0,1.2,93,0.00,SCT,,0.00,120.0,WeatherDisplay:10.37,2013-09-21 12:30:00,
2013-09-21 07:35:00,49.8,47.9,29.90,NW,317,0.0,0.0,93,0.00,SCT,,0.00,134.0,WeatherDisplay:10.37,2013-09-21 12:35:00,
2013-09-21 07:40:00,49.8,47.9,29.90,West,275,2.3,8.1,93,0.00,SCT,,0.00,155.0,WeatherDisplay:10.37,2013-09-21 12:40:00,
2013-09-21 07:45:00,49.9,48.0,29.90,WNW,284,0.0,0.0,93,0.00,SCT,,0.00,137.0,WeatherDisplay:10.37,2013-09-21 12:45:00,
2013-09-21 07:50:00,50.1,48.2,29.90,West,277,0.0,0.0,93,0.00,SCT,,0.00,197.0,WeatherDisplay:10.37,2013-09-21 12:50:00,
2013-09-21 07:55:00,50.2,48.0,29.90,WNW,302,0.0,0.0,92,0.00,SCT,,0.00,216.0,WeatherDisplay:10.37,2013-09-21 12:55:00,
2013-09-21 08:00:00,50.5,48.3,29.90,WNW,300,1.0,4.6,92,0.00,SCT,,0.00,77.0,WeatherDisplay:10.37,2013-09-21 13:00:00,
2013-09-21 08:05:00,50.4,47.9,29.90,WNW,287,0.0,0.0,91,0.00,CLR,,0.00,123.0,WeatherDisplay:10.37,2013-09-21 13:05:00,
2013-09-21 08:10:00,50.5,48.0,29.90,SW,225,0.2,3.3,91,0.00,CLR,,0.00,113.0,WeatherDisplay:10.37,2013-09-21 13:10:00,
2013-09-21 08:15:00,50.7,47.9,29.90,NNW,330,1.3,6.9,90,0.00,CLR,,0.00,160.0,WeatherDisplay:10.37,2013-09-21 13:15:00,
2013-09-21 08:20:00,51.0,48.2,29.90,WNW,302,1.9,9.9,90,0.00,CLR,,0.00,193.0,WeatherDisplay:10.37,2013-09-21 13:20:00,
2013-09-21 08:25:00,51.1,48.0,29.90,NNW,348,0.7,5.8,89,0.00,CLR,,0.00,100.0,WeatherDisplay:10.37,2013-09-21 13:25:00,
2013-09-21 08:30:00,51.3,48.2,29.90,WNW,283,0.4,4.4,89,0.00,CLR,,0.00,97.0,WeatherDisplay:10.37,2013-09-21 13:30:00,
2013-09-21 08:35:00,51.3,48.2,29.90,WNW,284,0.0,0.0,89,0.00,CLR,,0.00,90.0,WeatherDisplay:10.37,2013-09-21 13:35:00,
2013-09-21 08:40:00,51.3,48.2,29.90,WNW,286,0.4,5.5,89,0.00,CLR,,0.00,318.0,WeatherDisplay:10.37,2013-09-21 13:40:00,
2013-09-21 08:45:00,51.4,48.0,29.91,WNW,294,0.9,5.8,88,0.00,BKN,,0.00,332.0,WeatherDisplay:10.37,2013-09-21 13:45:00,
2013-09-21 08:50:00,51.6,48.2,29.91,WNW,301,2.0,6.6,88,0.00,BKN,,0.00,304.0,WeatherDisplay:10.37,2013-09-21 13:50:00,
2013-09-21 08:55:00,51.7,48.0,29.91,WSW,240,0.1,6.9,87,0.00,BKN,,0.00,380.0,WeatherDisplay:10.37,2013-09-21 13:55:00,
2013-09-21 09:00:00,51.7,47.6,29.91,West,263,1.3,8.8,86,0.00,BKN,,0.00,388.0,WeatherDisplay:10.37,2013-09-21 14:00:00,
2013-09-21 09:05:00,51.9,47.5,29.91,West,269,1.0,4.6,85,0.00,OVC,,0.00,413.0,WeatherDisplay:10.37,2013-09-21 14:05:00,
2013-09-21 09:10:00,52.2,47.2,29.91,NW,317,1.6,9.2,83,0.00,OVC,,0.00,374.0,WeatherDisplay:10.37,2013-09-21 14:10:00,
2013-09-21 09:15:00,52.5,47.2,29.91,NNW,348,0.6,9.2,82,0.00,OVC,,0.00,221.0,WeatherDisplay:10.37,2013-09-21 14:15:00,
2013-09-21 09:20:00,52.5,47.2,29.91,West,271,1.5,4.6,82,0.00,OVC,,0.00,230.0,WeatherDisplay:10.37,2013-09-21 14:20:00,
2013-09-21 09:25:00,52.5,46.8,29.91,NNW,340,2.3,6.9,81,0.00,OVC,,0.00,192.0,WeatherDisplay:10.37,2013-09-21 14:25:00,
2013-09-21 09:30:00,52.6,46.9,29.91,NW,306,1.4,6.9,81,0.00,OVC,,0.00,146.0,WeatherDisplay:10.37,2013-09-21 14:30:00,
2013-09-21 09:35:00,52.5,46.8,29.91,NNE,26,0.4,5.8,81,0.00,OVC,,0.00,114.0,WeatherDisplay:10.37,2013-09-21 14:35:00,
2013-09-21 09:40:00,52.6,47.6,29.91,NNE,24,0.0,1.2,83,0.00,OVC,,0.00,146.0,WeatherDisplay:10.37,2013-09-21 14:40:00,
2013-09-21 09:45:00,52.5,47.2,29.92,NNW,330,0.8,3.5,82,0.00,OVC,,0.00,148.0,WeatherDisplay:10.37,2013-09-21 14:45:00,
2013-09-21 09:50:00,52.6,47.6,29.92,NNW,330,0.0,0.0,83,0.00,OVC,,0.00,213.0,WeatherDisplay:10.37,2013-09-21 14:50:00,
2013-09-21 09:55:00,52.8,47.5,29.92,WNW,285,0.0,1.2,82,0.00,OVC,,0.00,202.0,WeatherDisplay:10.37,2013-09-21 14:55:00,
2013-09-21 10:00:00,52.8,47.1,29.92,West,273,0.0,5.8,81,0.00,OVC,,0.00,134.0,WeatherDisplay:10.37,2013-09-21 15:00:00,
2013-09-21 10:05:00,52.8,47.1,29.92,NW,307,0.0,0.0,81,0.00,OVC,,0.00,169.0,WeatherDisplay:10.37,2013-09-21 15:05:00,
2013-09-21 10:10:00,52.9,47.2,29.92,North,10,0.1,1.1,81,0.00,OVC,,0.00,146.0,WeatherDisplay:10.37,2013-09-21 15:10:00,
2013-09-21 10:15:00,52.9,46.9,29.92,West,279,1.2,5.8,80,0.00,OVC,,0.00,246.0,WeatherDisplay:10.37,2013-09-21 15:15:00,
2013-09-21 10:20:00,53.2,47.5,29.92,ENE,71,0.1,1.2,81,0.00,OVC,,0.00,183.0,WeatherDisplay:10.37,2013-09-21 15:20:00,
2013-09-21 10:25:00,53.3,47.3,29.92,NNW,331,0.0,1.1,80,0.00,OVC,,0.00,165.0,WeatherDisplay:10.37,2013-09-21 15:25:00,
2013-09-21 10:30:00,53.2,46.9,29.92,West,281,0.5,6.9,79,0.00,OVC,,0.00,127.0,WeatherDisplay:10.37,2013-09-21 15:30:00,
2013-09-21 10:35:00,53.2,47.2,29.92,West,265,0.1,1.1,80,0.00,OVC,,0.00,105.0,WeatherDisplay:10.37,2013-09-21 15:35:00,
2013-09-21 10:40:00,53.1,47.1,29.92,NW,306,0.1,1.2,80,0.00,OVC,,0.00,120.0,WeatherDisplay:10.37,2013-09-21 15:40:00,
2013-09-21 10:45:00,53.1,46.8,29.92,NNW,329,2.0,6.9,79,0.00,OVC,,0.00,167.0,WeatherDisplay:10.37,2013-09-21 15:45:00,
2013-09-21 10:50:00,53.1,46.8,29.92,NW,309,1.0,5.8,79,0.00,OVC,,0.00,171.0,WeatherDisplay:10.37,2013-09-21 15:50:00,
2013-09-21 10:55:00,53.2,46.9,29.92,NW,304,2.0,6.9,79,0.00,OVC,,0.00,107.0,WeatherDisplay:10.37,2013-09-21 15:55:00,
2013-09-21 11:00:00,53.2,46.9,29.92,West,269,1.5,5.5,79,0.00,OVC,,0.00,97.0,WeatherDisplay:10.37,2013-09-21 16:00:00,
2013-09-21 11:05:00,53.1,46.4,29.92,West,280,1.1,7.7,78,0.00,OVC,,0.00,134.0,WeatherDisplay:10.37,2013-09-21 16:05:00,
2013-09-21 11:10:00,53.1,46.8,29.92,NW,321,1.7,6.6,79,0.00,OVC,,0.00,125.0,WeatherDisplay:10.37,2013-09-21 16:10:00,
2013-09-21 11:15:00,52.9,46.6,29.92,NW,311,0.9,4.6,79,0.00,OVC,,0.00,120.0,WeatherDisplay:10.37,2013-09-21 16:15:00,
2013-09-21 11:20:00,52.9,46.2,29.92,NE,50,1.0,6.9,78,0.00,OVC,,0.00,120.0,WeatherDisplay:10.37,2013-09-21 16:20:00,
2013-09-21 11:25:00,52.9,46.2,29.92,NW,319,0.0,3.5,78,0.00,OVC,,0.00,125.0,WeatherDisplay:10.37,2013-09-21 16:25:00,
2013-09-21 11:30:00,52.9,46.6,29.92,NW,309,0.1,1.1,79,0.00,OVC,,0.00,114.0,WeatherDisplay:10.37,2013-09-21 16:30:00,
2013-09-21 11:35:00,52.9,46.6,29.92,WNW,301,0.8,3.5,79,0.00,OVC,,0.00,105.0,WeatherDisplay:10.37,2013-09-21 16:35:00,
2013-09-21 11:40:00,52.9,46.6,29.92,North,350,0.9,4.6,79,0.00,OVC,,0.00,93.0,WeatherDisplay:10.37,2013-09-21 16:40:00,
2013-09-21 11:45:00,52.9,46.2,29.93,North,360,0.5,3.5,78,0.00,OVC,,0.00,121.0,WeatherDisplay:10.37,2013-09-21 16:45:00,
2013-09-21 11:50:00,53.1,46.4,29.93,NNW,336,0.0,2.3,78,0.00,OVC,,0.00,202.0,WeatherDisplay:10.37,2013-09-21 16:50:00,
2013-09-21 11:55:00,53.2,46.5,29.93,North,11,0.0,0.0,78,0.00,OVC,,0.00,304.0,WeatherDisplay:10.37,2013-09-21 16:55:00,
2013-09-21 12:00:00,53.5,46.8,29.93,West,281,0.8,4.6,78,0.00,OVC,,0.00,304.0,WeatherDisplay:10.37,2013-09-21 17:00:00,
2013-09-21 12:05:00,53.8,47.1,29.93,NW,310,0.0,1.2,78,0.00,OVC,,0.00,308.0,WeatherDisplay:10.37,2013-09-21 17:05:00,
2013-09-21 12:10:00,54.1,47.4,29.93,WNW,303,0.1,1.2,78,0.00,OVC,,0.00,329.0,WeatherDisplay:10.37,2013-09-21 17:10:00,
2013-09-21 12:15:00,54.8,47.4,29.92,NNW,347,3.2,5.8,76,0.00,OVC,,0.00,334.0,WeatherDisplay:10.37,2013-09-21 17:15:00,
2013-09-21 12:20:00,55.1,47.3,29.92,West,260,1.3,4.4,75,0.00,OVC,,0.00,473.0,WeatherDisplay:10.37,2013-09-21 17:20:00,
2013-09-21 12:25:00,55.3,47.2,29.92,NW,323,0.8,3.3,74,0.00,OVC,,0.00,329.0,WeatherDisplay:10.37,2013-09-21 17:25:00,
2013-09-21 12:30:00,55.4,46.9,29.93,WNW,298,0.3,3.3,73,0.00,OVC,,0.00,338.0,WeatherDisplay:10.37,2013-09-21 17:30:00,
2013-09-21 12:35:00,55.6,47.1,29.93,SW,229,0.4,4.6,73,0.00,OVC,,0.00,339.0,WeatherDisplay:10.37,2013-09-21 17:35:00,
2013-09-21 12:40:00,55.9,47.4,29.93,WSW,244,0.5,4.6,73,0.00,OVC,,0.00,401.0,WeatherDisplay:10.37,2013-09-21 17:40:00,
2013-09-21 12:45:00,56.0,46.4,29.92,West,264,0.0,5.8,70,0.00,OVC,,0.00,271.0,WeatherDisplay:10.37,2013-09-21 17:45:00,
2013-09-21 12:50:00,56.0,46.0,29.92,WNW,297,2.3,5.8,69,0.00,OVC,,0.00,190.0,WeatherDisplay:10.37,2013-09-21 17:50:00,
2013-09-21 12:55:00,55.9,45.5,29.92,NW,312,1.9,10.4,68,0.00,OVC,,0.00,290.0,WeatherDisplay:10.37,2013-09-21 17:55:00,
2013-09-21 13:00:00,55.9,45.9,29.92,North,355,0.0,2.2,69,0.00,OVC,,0.00,434.0,WeatherDisplay:10.37,2013-09-21 18:00:00,
2013-09-21 13:05:00,56.2,45.8,29.92,NNE,22,1.3,10.4,68,0.00,OVC,,0.00,383.0,WeatherDisplay:10.37,2013-09-21 18:05:00,
2013-09-21 13:10:00,56.3,46.3,29.92,WNW,294,1.5,4.4,69,0.00,OVC,,0.00,359.0,WeatherDisplay:10.37,2013-09-21 18:10:00,
2013-09-21 13:15:00,56.7,45.5,29.92,NNE,23,2.0,8.1,66,0.00,OVC,,0.00,276.0,WeatherDisplay:10.37,2013-09-21 18:15:00,
2013-09-21 13:20:00,56.6,45.8,29.92,WNW,302,0.9,5.8,67,0.00,OVC,,0.00,294.0,WeatherDisplay:10.37,2013-09-21 18:20:00,
2013-09-21 13:25:00,56.6,46.2,29.92,WNW,301,0.1,5.8,68,0.00,OVC,,0.00,257.0,WeatherDisplay:10.37,2013-09-21 18:25:00,
2013-09-21 13:30:00,56.3,45.9,29.92,West,269,2.3,4.6,68,0.00,OVC,,0.00,237.0,WeatherDisplay:10.37,2013-09-21 18:30:00,
2013-09-21 13:35:00,56.2,46.2,29.92,NNW,329,0.3,2.3,69,0.00,OVC,,0.00,246.0,WeatherDisplay:10.37,2013-09-21 18:35:00,
2013-09-21 13:40:00,56.3,45.9,29.92,WNW,282,0.9,3.3,68,0.00,OVC,,0.00,272.0,WeatherDisplay:10.37,2013-09-21 18:40:00,
2013-09-21 13:45:00,56.3,46.3,29.92,WSW,247,0.4,3.3,69,0.00,OVC,,0.00,316.0,WeatherDisplay:10.37,2013-09-21 18:45:00,
2013-09-21 13:50:00,56.5,46.1,29.92,NW,305,3.5,9.2,68,0.00,OVC,,0.00,628.0,WeatherDisplay:10.37,2013-09-21 18:50:00,
2013-09-21 13:55:00,56.7,45.5,29.92,SSW,209,0.1,1.2,66,0.00,OVC,,0.00,445.0,WeatherDisplay:10.37,2013-09-21 18:55:00,
2013-09-21 14:00:00,57.8,46.1,29.92,NW,319,2.1,10.4,65,0.00,OVC,,0.00,355.0,WeatherDisplay:10.37,2013-09-21 19:00:00,
2013-09-21 14:05:00,58.3,45.3,29.92,NW,323,0.5,3.3,62,0.00,OVC,,0.00,343.0,WeatherDisplay:10.37,2013-09-21 19:05:00,
2013-09-21 14:10:00,57.8,46.1,29.92,SW,235,1.8,7.7,65,0.00,OVC,,0.00,243.0,WeatherDisplay:10.37,2013-09-21 19:10:00,
2013-09-21 14:15:00,57.5,46.2,29.92,SW,215,0.4,3.5,66,0.00,OVC,,0.00,329.0,WeatherDisplay:10.37,2013-09-21 19:15:00,
2013-09-21 14:20:00,57.3,46.8,29.92,WNW,297,1.2,5.5,68,0.00,OVC,,0.00,367.0,WeatherDisplay:10.37,2013-09-21 19:20:00,
2013-09-21 14:25:00,57.3,46.4,29.92,WSW,250,0.1,1.1,67,0.00,OVC,,0.00,255.0,WeatherDisplay:10.37,2013-09-21 19:25:00,
2013-09-21 14:30:00,57.2,46.3,29.92,West,267,1.7,4.6,67,0.00,OVC,,0.00,323.0,WeatherDisplay:10.37,2013-09-21 19:30:00,
2013-09-21 14:35:00,57.0,45.7,29.92,WSW,244,1.1,6.9,66,0.00,OVC,,0.00,473.0,WeatherDisplay:10.37,2013-09-21 19:35:00,
2013-09-21 14:40:00,57.3,46.0,29.92,North,360,0.9,5.8,66,0.00,OVC,,0.00,327.0,WeatherDisplay:10.37,2013-09-21 19:40:00,
2013-09-21 14:45:00,57.6,45.9,29.92,WNW,300,2.5,12.1,65,0.00,BKN,,0.00,309.0,WeatherDisplay:10.37,2013-09-21 19:45:00,
2013-09-21 14:50:00,57.6,45.9,29.92,WNW,296,0.1,1.2,65,0.00,BKN,,0.00,264.0,WeatherDisplay:10.37,2013-09-21 19:50:00,
2013-09-21 14:55:00,58.1,45.6,29.92,NW,312,1.1,4.6,63,0.00,BKN,,0.00,248.0,WeatherDisplay:10.37,2013-09-21 19:55:00,
2013-09-21 15:00:00,58.6,46.0,29.92,WNW,294,0.0,0.0,63,0.00,BKN,,0.00,294.0,WeatherDisplay:10.37,2013-09-21 20:00:00,
2013-09-21 15:05:00,58.7,46.1,29.92,NW,311,0.0,0.0,63,0.00,BKN,,0.00,142.0,WeatherDisplay:10.37,2013-09-21 20:05:00,
2013-09-21 15:10:00,58.6,46.5,29.92,NW,311,0.0,1.2,64,0.00,BKN,,0.00,722.0,WeatherDisplay:10.37,2013-09-21 20:10:00,
2013-09-21 15:15:00,58.7,45.7,29.92,West,259,0.7,3.5,62,0.00,BKN,,0.00,705.0,WeatherDisplay:10.37,2013-09-21 20:15:00,
2013-09-21 15:20:00,58.9,45.9,29.92,West,259,0.0,1.2,62,0.00,BKN,,0.00,137.0,WeatherDisplay:10.37,2013-09-21 20:20:00,
2013-09-21 15:25:00,58.4,46.7,29.92,West,259,0.0,0.0,65,0.00,SCT,,0.00,120.0,WeatherDisplay:10.37,2013-09-21 20:25:00,
2013-09-21 15:30:00,58.3,47.0,29.91,North,360,0.0,0.0,66,0.00,SCT,,0.00,190.0,WeatherDisplay:10.37,2013-09-21 20:30:00,
2013-09-21 15:35:00,58.9,46.3,29.91,WNW,293,0.5,3.5,63,0.00,SCT,,0.00,188.0,WeatherDisplay:10.37,2013-09-21 20:35:00,
2013-09-21 15:40:00,59.3,47.1,29.91,WNW,294,0.0,1.1,64,0.00,SCT,,0.00,724.0,WeatherDisplay:10.37,2013-09-21 20:40:00,
2013-09-21 15:45:00,59.6,47.4,29.91,NNW,332,0.1,1.2,64,0.00,SCT,,0.00,220.0,WeatherDisplay:10.37,2013-09-21 20:45:00,
2013-09-21 15:50:00,59.8,47.6,29.91,NW,325,0.0,0.0,64,0.00,SCT,,0.00,478.0,WeatherDisplay:10.37,2013-09-21 20:50:00,
2013-09-21 15:55:00,60.2,47.1,29.91,WNW,302,1.0,3.5,62,0.00,SCT,,0.00,137.0,WeatherDisplay:10.37,2013-09-21 20:55:00,
2013-09-21 16:00:00,59.6,47.0,29.91,NW,315,0.0,1.2,63,0.00,SCT,,0.00,169.0,WeatherDisplay:10.37,2013-09-21 21:00:00,
2013-09-21 16:05:00,59.5,47.3,29.91,NW,316,0.0,1.2,64,0.00,SCT,,0.00,195.0,WeatherDisplay:10.37,2013-09-21 21:05:00,
2013-09-21 16:10:00,59.6,47.4,29.91,NW,316,0.0,0.0,64,0.00,SCT,,0.00,652.0,WeatherDisplay:10.37,2013-09-21 21:10:00,
2013-09-21 16:15:00,60.7,47.2,29.91,West,281,3.7,7.7,61,0.00,SCT,,0.00,606.0,WeatherDisplay:10.37,2013-09-21 21:15:00,
2013-09-21 16:20:00,60.9,46.9,29.91,WNW,287,2.9,9.2,60,0.00,SCT,,0.00,578.0,WeatherDisplay:10.37,2013-09-21 21:20:00,
2013-09-21 16:25:00,61.0,47.4,29.91,WNW,297,0.7,6.9,61,0.00,SCT,,0.00,499.0,WeatherDisplay:10.37,2013-09-21 21:25:00,
2013-09-21 16:30:00,60.9,46.9,29.91,WNW,282,1.0,4.6,60,0.00,SCT,,0.00,67.0,WeatherDisplay:10.37,2013-09-21 21:30:00,
2013-09-21 16:35:00,60.1,47.0,29.91,WNW,290,0.0,1.2,62,0.00,SCT,,0.00,69.0,WeatherDisplay:10.37,2013-09-21 21:35:00,
2013-09-21 16:40:00,59.5,47.3,29.91,West,281,0.0,0.0,64,0.00,SCT,,0.00,97.0,WeatherDisplay:10.37,2013-09-21 21:40:00,
2013-09-21 16:45:00,59.8,48.0,29.91,West,266,0.0,1.1,65,0.00,BKN,,0.00,315.0,WeatherDisplay:10.37,2013-09-21 21:45:00,
2013-09-21 16:50:00,59.6,47.0,29.91,West,278,0.8,4.4,63,0.00,BKN,,0.00,165.0,WeatherDisplay:10.37,2013-09-21 21:50:00,
2013-09-21 16:55:00,59.3,47.5,29.91,WNW,294,1.0,5.5,65,0.00,BKN,,0.00,364.0,WeatherDisplay:10.37,2013-09-21 21:55:00,
2013-09-21 17:00:00,59.3,47.1,29.91,NW,313,1.0,6.9,64,0.00,BKN,,0.00,98.0,WeatherDisplay:10.37,2013-09-21 22:00:00,
2013-09-21 17:05:00,59.6,47.8,29.91,NW,313,0.1,1.1,65,0.00,BKN,,0.00,357.0,WeatherDisplay:10.37,2013-09-21 22:05:00,
2013-09-21 17:10:00,59.9,47.3,29.91,WNW,292,1.6,6.6,63,0.00,BKN,,0.00,364.0,WeatherDisplay:10.37,2013-09-21 22:10:00,
2013-09-21 17:15:00,60.2,47.1,29.91,West,281,0.1,1.2,62,0.00,BKN,,0.00,285.0,WeatherDisplay:10.37,2013-09-21 22:15:00,
2013-09-21 17:20:00,60.4,46.9,29.91,NW,304,0.0,1.2,61,0.00,BKN,,0.00,264.0,WeatherDisplay:10.37,2013-09-21 22:20:00,
2013-09-21 17:25:00,60.4,47.3,29.91,NW,310,0.0,0.0,62,0.00,BKN,,0.00,107.0,WeatherDisplay:10.37,2013-09-21 22:25:00,
2013-09-21 17:30:00,60.1,47.5,29.90,West,281,0.0,1.2,63,0.00,BKN,,0.00,65.0,WeatherDisplay:10.37,2013-09-21 22:30:00,
2013-09-21 17:35:00,59.6,47.0,29.90,WSW,251,0.8,5.5,63,0.00,BKN,,0.00,35.0,WeatherDisplay:10.37,2013-09-21 22:35:00,
2013-09-21 17:40:00,59.3,46.7,29.90,NW,317,0.2,2.3,63,0.00,BKN,,0.00,51.0,WeatherDisplay:10.37,2013-09-21 22:40:00,
2013-09-21 17:45:00,59.2,46.6,29.90,West,263,0.4,5.8,63,0.00,SCT,,0.00,44.0,WeatherDisplay:10.37,2013-09-21 22:45:00,
2013-09-21 17:50:00,59.2,47.0,29.90,SW,220,0.0,1.2,64,0.00,SCT,,0.00,53.0,WeatherDisplay:10.37,2013-09-21 22:50:00,
2013-09-21 17:55:00,59.0,46.8,29.90,West,272,0.0,0.0,64,0.00,SCT,,0.00,30.0,WeatherDisplay:10.37,2013-09-21 22:55:00,
2013-09-21 18:00:00,58.9,47.2,29.90,NW,306,0.0,0.0,65,0.00,SCT,,0.00,26.0,WeatherDisplay:10.37,2013-09-21 23:00:00,
2013-09-21 18:05:00,58.7,47.4,29.90,SW,219,0.1,4.6,66,0.00,SCT,,0.00,23.0,WeatherDisplay:10.37,2013-09-21 23:05:00,
2013-09-21 18:10:00,58.6,47.3,29.90,NW,323,0.0,1.1,66,0.00,SCT,,0.00,23.0,WeatherDisplay:10.37,2013-09-21 23:10:00,
2013-09-21 18:15:00,58.4,47.5,29.90,NW,311,0.1,1.2,67,0.00,SCT,,0.00,21.0,WeatherDisplay:10.37,2013-09-21 23:15:00,
2013-09-21 18:20:00,58.1,47.6,29.90,WNW,294,0.0,0.0,68,0.00,SCT,,0.00,19.0,WeatherDisplay:10.37,2013-09-21 23:20:00,
2013-09-21 18:25:00,58.0,47.5,29.90,WNW,301,0.0,1.2,68,0.00,CLR,,0.00,16.0,WeatherDisplay:10.37,2013-09-21 23:25:00,
2013-09-21 18:30:00,57.8,47.7,29.90,WNW,301,0.0,0.0,69,0.00,CLR,,0.00,16.0,WeatherDisplay:10.37,2013-09-21 23:30:00,
2013-09-21 18:35:00,57.6,47.5,29.90,WNW,301,0.0,0.0,69,0.00,CLR,,0.00,12.0,WeatherDisplay:10.37,2013-09-21 23:35:00,
2013-09-21 18:40:00,57.5,47.8,29.90,WNW,301,0.0,0.0,70,0.00,CLR,,0.00,11.0,WeatherDisplay:10.37,2013-09-21 23:40:00,
2013-09-21 18:45:00,57.2,47.5,29.90,WNW,301,0.0,0.0,70,0.00,CLR,,0.00,9.0,WeatherDisplay:10.37,2013-09-21 23:45:00,
2013-09-21 18:50:00,57.0,47.7,29.90,WNW,301,0.0,0.0,71,0.00,CLR,,0.00,7.0,WeatherDisplay:10.37,2013-09-21 23:50:00,
2013-09-21 18:55:00,56.7,47.4,29.90,WNW,301,0.0,0.0,71,0.00,CLR,,0.00,5.0,WeatherDisplay:10.37,2013-09-21 23:55:00,
2013-09-21 19:00:00,56.5,47.6,29.90,WNW,301,0.0,0.0,72,0.00,CLR,,0.00,0.0,WeatherDisplay:10.37,2013-09-22 00:00:00,
2013-09-21 19:05:00,56.2,47.3,29.90,WNW,301,0.0,0.0,72,0.00,CLR,,0.00,0.0,WeatherDisplay:10.37,2013-09-22 00:05:00,
2013-09-21 19:10:00,55.9,47.4,29.90,WNW,301,0.0,0.0,73,0.00,CLR,,0.00,0.0,WeatherDisplay:10.37,2013-09-22 00:10:00,
2013-09-21 19:15:00,55.6,47.4,29.90,WNW,301,0.0,0.0,74,0.00,CLR,,0.00,0.0,WeatherDisplay:10.37,2013-09-22 00:15:00,
2013-09-21 19:20:00,55.3,47.2,29.90,WNW,301,0.0,0.0,74,0.00,CLR,,0.00,0.0,WeatherDisplay:10.37,2013-09-22 00:20:00,
2013-09-21 19:25:00,55.0,47.6,29.90,WNW,301,0.0,0.0,76,0.00,CLR,,0.00,0.0,WeatherDisplay:10.37,2013-09-22 00:25:00,
2013-09-21 19:30:00,54.7,47.6,29.91,WNW,301,0.0,0.0,77,0.00,CLR,,0.00,0.0,WeatherDisplay:10.37,2013-09-22 00:30:00,
2013-09-21 19:35:00,54.5,47.4,29.91,WNW,301,0.0,0.0,77,0.00,CLR,,0.00,0.0,WeatherDisplay:10.37,2013-09-22 00:35:00,
2013-09-21 19:40:00,54.4,47.7,29.91,WNW,301,0.0,0.0,78,0.00,CLR,,0.00,0.0,WeatherDisplay:10.37,2013-09-22 00:40:00,
2013-09-21 19:45:00,54.1,47.7,29.91,WNW,301,0.0,0.0,79,0.00,CLR,,0.00,0.0,WeatherDisplay:10.37,2013-09-22 00:45:00,
2013-09-21 19:50:00,53.8,47.4,29.91,WNW,301,0.0,0.0,79,0.00,CLR,,0.00,0.0,WeatherDisplay:10.37,2013-09-22 00:50:00,
2013-09-21 19:55:00,53.5,47.5,29.91,WNW,301,0.0,0.0,80,0.00,CLR,,0.00,0.0,WeatherDisplay:10.37,2013-09-22 00:55:00,
2013-09-21 20:00:00,53.3,47.6,29.92,WNW,301,0.0,0.0,81,0.00,CLR,,0.00,0.0,WeatherDisplay:10.37,2013-09-22 01:00:00,
2013-09-21 20:05:00,53.2,47.5,29.92,WNW,301,0.0,0.0,81,0.00,CLR,,0.00,0.0,WeatherDisplay:10.37,2013-09-22 01:05:00,
2013-09-21 20:10:00,52.9,47.6,29.92,WNW,301,0.0,0.0,82,0.00,CLR,,0.00,0.0,WeatherDisplay:10.37,2013-09-22 01:10:00,
2013-09-21 20:15:00,52.8,47.5,29.92,WNW,301,0.0,0.0,82,0.00,CLR,,0.00,0.0,WeatherDisplay:10.37,2013-09-22 01:15:00,
2013-09-21 20:20:00,52.6,47.6,29.92,WNW,301,0.0,0.0,83,0.00,CLR,,0.00,0.0,WeatherDisplay:10.37,2013-09-22 01:20:00,
2013-09-21 20:26:00,52.3,47.3,29.92,WNW,301,0.0,0.0,83,0.00,CLR,,0.00,0.0,WeatherDisplay:10.37,2013-09-22 01:26:00,
2013-09-21 20:31:00,52.2,47.5,29.92,WNW,301,0.0,0.0,84,0.00,CLR,,0.00,0.0,WeatherDisplay:10.37,2013-09-22 01:31:00,
2013-09-21 20:36:00,52.0,47.6,29.92,WNW,301,0.0,0.0,85,0.00,CLR,,0.00,0.0,WeatherDisplay:10.37,2013-09-22 01:36:00,
2013-09-21 20:41:00,51.9,47.5,29.92,WNW,301,0.0,0.0,85,0.00,CLR,,0.00,0.0,WeatherDisplay:10.37,2013-09-22 01:41:00,
2013-09-21 20:46:00,51.6,47.2,29.92,WNW,301,0.0,0.0,85,0.00,CLR,,0.00,0.0,WeatherDisplay:10.37,2013-09-22 01:46:00,
2013-09-21 20:51:00,51.4,47.4,29.92,WNW,301,0.0,0.0,86,0.00,CLR,,0.00,0.0,WeatherDisplay:10.37,2013-09-22 01:51:00,
2013-09-21 20:56:00,51.3,47.3,29.92,WNW,301,0.0,0.0,86,0.00,CLR,,0.00,0.0,WeatherDisplay:10.37,2013-09-22 01:56:00,
2013-09-21 21:01:00,51.1,47.4,29.93,WNW,301,0.0,0.0,87,0.00,CLR,,0.00,0.0,WeatherDisplay:10.37,2013-09-22 02:01:00,
2013-09-21 21:06:00,50.7,47.3,29.93,NW,318,0.0,0.0,88,0.00,CLR,,0.00,0.0,WeatherDisplay:10.37,2013-09-22 02:06:00,
2013-09-21 21:11:00,50.4,47.0,29.93,NW,318,0.0,0.0,88,0.00,CLR,,0.00,0.0,WeatherDisplay:10.37,2013-09-22 02:11:00,
2013-09-21 21:16:00,50.1,46.7,29.93,NW,318,0.0,0.0,88,0.00,CLR,,0.00,0.0,WeatherDisplay:10.37,2013-09-22 02:16:00,
2013-09-21 21:21:00,49.9,46.8,29.93,NW,318,0.0,0.0,89,0.00,CLR,,0.00,0.0,WeatherDisplay:10.37,2013-09-22 02:21:00,
2013-09-21 21:26:00,49.6,46.5,29.93,NW,318,0.0,0.0,89,0.00,CLR,,0.00,0.0,WeatherDisplay:10.37,2013-09-22 02:26:00,
2013-09-21 21:31:00,49.6,46.8,29.94,NW,318,0.0,0.0,90,0.00,CLR,,0.00,0.0,WeatherDisplay:10.37,2013-09-22 02:31:00,
2013-09-21 21:36:00,49.5,46.7,29.94,NW,318,0.0,0.0,90,0.00,CLR,,0.00,0.0,WeatherDisplay:10.37,2013-09-22 02:36:00,
2013-09-21 21:41:00,49.4,46.6,29.94,NW,318,0.0,0.0,90,0.00,CLR,,0.00,0.0,WeatherDisplay:10.37,2013-09-22 02:41:00,
2013-09-21 21:46:00,49.2,46.4,29.94,NW,318,0.0,0.0,90,0.00,CLR,,0.00,0.0,WeatherDisplay:10.37,2013-09-22 02:46:00,
2013-09-21 21:51:00,49.2,46.7,29.94,NW,318,0.0,0.0,91,0.00,CLR,,0.00,0.0,WeatherDisplay:10.37,2013-09-22 02:51:00,
2013-09-21 21:56:00,49.1,46.6,29.94,NW,318,0.0,0.0,91,0.00,CLR,,0.00,0.0,WeatherDisplay:10.37,2013-09-22 02:56:00,
2013-09-21 22:01:00,48.9,46.4,29.94,NW,318,0.0,0.0,91,0.00,CLR,,0.00,0.0,WeatherDisplay:10.37,2013-09-22 03:01:00,
2013-09-21 22:06:00,48.8,46.3,29.94,NW,318,0.0,0.0,91,0.00,CLR,,0.00,0.0,WeatherDisplay:10.37,2013-09-22 03:06:00,
2013-09-21 22:11:00,48.6,46.1,29.94,NW,318,0.0,0.0,91,0.00,CLR,,0.00,0.0,WeatherDisplay:10.37,2013-09-22 03:11:00,
2013-09-21 22:16:00,48.5,46.0,29.94,NW,318,0.0,0.0,91,0.00,CLR,,0.00,0.0,WeatherDisplay:10.37,2013-09-22 03:16:00,
2013-09-21 22:21:00,48.3,46.1,29.94,NW,318,0.0,0.0,92,0.00,CLR,,0.00,0.0,WeatherDisplay:10.37,2013-09-22 03:21:00,
2013-09-21 22:26:00,48.3,46.1,29.94,NW,318,0.0,0.0,92,0.00,CLR,,0.00,0.0,WeatherDisplay:10.37,2013-09-22 03:26:00,
2013-09-21 22:31:00,48.2,46.0,29.94,NW,318,0.0,0.0,92,0.00,CLR,,0.00,0.0,WeatherDisplay:10.37,2013-09-22 03:31:00,
2013-09-21 22:36:00,48.0,45.8,29.94,NW,318,0.0,0.0,92,0.00,CLR,,0.00,0.0,WeatherDisplay:10.37,2013-09-22 03:36:00,
2013-09-21 22:41:00,48.0,45.8,29.94,NW,318,0.0,0.0,92,0.00,CLR,,0.00,0.0,WeatherDisplay:10.37,2013-09-22 03:41:00,
2013-09-21 22:46:00,47.9,45.7,29.95,NW,318,0.0,0.0,92,0.00,CLR,,0.00,0.0,WeatherDisplay:10.37,2013-09-22 03:46:00,
2013-09-21 22:51:00,47.9,46.0,29.95,NW,318,0.0,0.0,93,0.00,CLR,,0.00,0.0,WeatherDisplay:10.37,2013-09-22 03:51:00,
2013-09-21 22:56:00,47.7,45.8,29.95,NW,318,0.0,0.0,93,0.00,CLR,,0.00,0.0,WeatherDisplay:10.37,2013-09-22 03:56:00,
2013-09-21 23:01:00,47.6,45.7,29.96,NW,318,0.0,0.0,93,0.00,CLR,,0.00,0.0,WeatherDisplay:10.37,2013-09-22 04:01:00,
2013-09-21 23:02:00,47.6,45.7,29.96,NW,318,0.0,0.0,93,0.00,CLR,,0.00,0.0,WeatherDisplay:10.37,2013-09-22 04:02:00,
2013-09-21 23:04:00,47.6,45.7,29.96,NW,318,0.0,0.0,93,0.00,CLR,,0.00,0.0,WeatherDisplay:10.37,2013-09-22 04:04:00,
2013-09-21 23:09:00,47.7,45.8,29.96,NW,318,0.0,0.0,93,0.00,CLR,,0.00,0.0,WeatherDisplay:10.37,2013-09-22 04:09:00,
2013-09-21 23:14:00,47.7,45.8,29.96,NW,318,0.0,0.0,93,0.00,CLR,,0.00,0.0,WeatherDisplay:10.37,2013-09-22 04:14:00,
2013-09-21 23:19:00,47.6,45.7,29.96,NW,318,0.0,0.0,93,0.00,CLR,,0.00,0.0,WeatherDisplay:10.37,2013-09-22 04:19:00,
2013-09-21 23:24:00,47.6,45.7,29.96,NW,318,0.0,0.0,93,0.00,CLR,,0.00,0.0,WeatherDisplay:10.37,2013-09-22 04:24:00,
2013-09-21 23:29:00,47.3,45.4,29.96,NW,318,0.0,0.0,93,0.00,CLR,,0.00,0.0,WeatherDisplay:10.37,2013-09-22 04:29:00,
2013-09-21 23:35:00,47.0,45.1,29.96,NW,318,0.0,0.0,93,0.00,CLR,,0.00,0.0,WeatherDisplay:10.37,2013-09-22 04:35:00,
2013-09-21 23:40:00,46.8,44.9,29.96,NW,318,0.0,0.0,93,0.00,CLR,,0.00,0.0,WeatherDisplay:10.37,2013-09-22 04:40:00,
2013-09-21 23:45:00,46.8,45.2,29.96,NW,318,0.0,0.0,94,0.00,CLR,,0.00,0.0,WeatherDisplay:10.37,2013-09-22 04:45:00,
2013-09-21 23:50:00,46.8,45.2,29.96,NW,318,0.0,0.0,94,0.00,CLR,,0.00,0.0,WeatherDisplay:10.37,2013-09-22 04:50:00,
2013-09-21 23:55:00,46.8,45.2,29.96,NW,318,0.0,0.0,94,0.00,CLR,,0.00,0.0,WeatherDisplay:10.37,2013-09-22 04:55:00,